Time;durP1;ratioP1;P1;durP2;ratioP2;P2;SDS_P1;SDS_P2;PMS_P1;PMS_P2;Temp;Humidity;BMP_temperature;BMP_pressure;BME280_temperature;BME280_humidity;BME280_pressure;Samples;Min_cycle;Max_cycle;Signal;HPM_P1;HPM_P2
2022/09/29 00:01:16;;;;;;;;;;;;;;;;;;4915807;28;20609;-65
2022/09/29 00:03:46;;;;;;;;;;;;;;;;;;4896311;29;19923;-65
2022/09/29 00:06:14;;;;;;;;;;;;;;;;;;4914281;28;19923;-65
2022/09/29 00:08:39;;;;;;;;;;;;;;;;;;4915015;28;20696;-64
2022/09/29 00:11:06;;;;;;;;;;;;;;;;;;4911917;28;19923;-65
2022/09/29 00:13:32;;;;;;;;;;;;;;;;;;4886452;28;19938;-65
2022/09/29 00:15:57;;;;;;;;;;;;;;;;;;4908434;28;20978;-66
2022/09/29 00:18:25;;;;;;;;;;;;;;;;;;4903415;28;20945;-66
2022/09/29 00:20:51;;;;;;;;;;;;;;;;;;4891699;28;19955;-65
2022/09/29 00:23:16;;;;;;;;;;;;;;;;;;4900785;28;20378;-66
2022/09/29 00:25:44;;;;;;;;;;;;;;;;;;4901306;28;19929;-66
2022/09/29 00:28:10;;;;;;;;;;;;;;;;;;4902020;28;19995;-64
2022/09/29 00:30:35;;;;;;;;;;;;;;;;;;4902264;29;20458;-65
2022/09/29 00:33:03;;;;;;;;;;;;;;;;;;4920129;28;19922;-66
2022/09/29 00:35:28;;;;;;;;;;;;;;;;;;4918594;28;19923;-66
2022/09/29 00:37:53;;;;;;;;;;;;;;;;;;4901712;29;21014;-66
2022/09/29 00:40:19;;;;;;;;;;;;;;;;;;4901023;28;19923;-65
2022/09/29 00:42:44;;;;;;;;;;;;;;;;;;4905214;28;20025;-65
2022/09/29 00:45:12;;;;;;;;;;;;;;;;;;4913729;28;19919;-64
2022/09/29 00:47:38;;;;;;;;;;;;;;;;;;4918849;28;19923;-65
2022/09/29 00:50:08;;;;;;;;;;;;;;;;;;4903506;28;19919;-66
2022/09/29 00:52:36;;;;;;;;;;;;;;;;;;4916188;28;19973;-64
2022/09/29 00:55:03;;;;;;;;;;;;;;;;;;4886008;28;19927;-64
2022/09/29 00:57:31;;;;;;;;;;;;;;;;;;4916858;28;19927;-64
2022/09/29 00:59:57;;;;;;;;;;;;;;;;;;4899680;28;19950;-65
2022/09/29 01:02:22;;;;;;;;;;;;;;;;;;4914357;28;19927;-65
2022/09/29 01:04:47;;;;;;;;;;;;;;;;;;4890137;28;19922;-65
2022/09/29 01:07:15;;;;;;;;;;;;;;;;;;4902053;29;19922;-65
2022/09/29 01:09:42;;;;;;;;;;;;;;;;;;4916591;28;19976;-65
2022/09/29 01:12:08;;;;;;;;;;;;;;;;;;4887854;28;19927;-65
2022/09/29 01:14:33;;;;;;;;;;;;;;;;;;4918471;28;19922;-65
2022/09/29 01:16:58;;;;;;;;;;;;;;;;;;4902149;29;19918;-64
2022/09/29 01:19:26;;;;;;;;;;;;;;;;;;4916934;28;19923;-64
2022/09/29 01:21:51;;;;;;;;;;;;;;;;;;4891650;29;19933;-65
2022/09/29 01:24:16;;;;;;;;;;;;;;;;;;4898108;29;20787;-65
2022/09/29 01:26:42;;;;;;;;;;;;;;;;;;4913812;28;20017;-65
2022/09/29 01:29:09;;;;;;;;;;;;;;;;;;4916988;28;19958;-66
2022/09/29 01:31:37;;;;;;;;;;;;;;;;;;4916604;28;20507;-66
2022/09/29 01:34:02;;;;;;;;;;;;;;;;;;4917467;28;19954;-64
2022/09/29 01:36:30;;;;;;;;;;;;;;;;;;4904990;28;20752;-63
2022/09/29 01:38:55;;;;;;;;;;;;;;;;;;4903836;29;19929;-64
2022/09/29 01:41:23;;;;;;;;;;;;;;;;;;4900714;28;20017;-64
2022/09/29 01:43:51;;;;;;;;;;;;;;;;;;4918180;28;19930;-64
2022/09/29 01:46:16;;;;;;;;;;;;;;;;;;4891315;28;20061;-65
2022/09/29 01:48:44;;;;;;;;;;;;;;;;;;4906431;29;19923;-65
2022/09/29 01:51:10;;;;;;;;;;;;;;;;;;4905903;28;20338;-65
2022/09/29 01:53:35;;;;;;;;;;;;;;;;;;4916090;28;19926;-63
2022/09/29 01:56:00;;;;;;;;;;;;;;;;;;4899055;29;20539;-64
2022/09/29 01:58:25;;;;;;;;;;;;;;;;;;4901878;28;20361;-64
2022/09/29 02:00:51;;;;;;;;;;;;;;;;;;4903730;29;19938;-64
2022/09/29 02:03:16;;;;;;;;;;;;;;;;;;4913650;28;19961;-65
2022/09/29 02:05:44;;;;;;;;;;;;;;;;;;4888483;29;20053;-64
2022/09/29 02:08:09;;;;;;;;;;;;;;;;;;4902849;29;20310;-65
2022/09/29 02:10:34;;;;;;;;;;;;;;;;;;4897772;28;20065;-65
2022/09/29 02:13:02;;;;;;;;;;;;;;;;;;4888643;28;19922;-63
2022/09/29 02:15:29;;;;;;;;;;;;;;;;;;4913800;28;19926;-64
2022/09/29 02:17:55;;;;;;;;;;;;;;;;;;4896186;29;19922;-64
2022/09/29 02:20:21;;;;;;;;;;;;;;;;;;4898626;28;20012;-64
2022/09/29 02:22:46;;;;;;;;;;;;;;;;;;4915682;28;20327;-64
2022/09/29 02:25:15;;;;;;;;;;;;;;;;;;4916191;28;20033;-63
2022/09/29 02:27:41;;;;;;;;;;;;;;;;;;4918307;28;19924;-64
2022/09/29 02:30:09;;;;;;;;;;;;;;;;;;4899859;28;21677;-63
2022/09/29 02:32:34;;;;;;;;;;;;;;;;;;4890184;29;19919;-63
2022/09/29 02:35:00;;;;;;;;;;;;;;;;;;4905160;28;19926;-63
2022/09/29 02:37:25;;;;;;;;;;;;;;;;;;4915730;28;19956;-64
2022/09/29 02:39:53;;;;;;;;;;;;;;;;;;4903252;28;20554;-62
2022/09/29 02:42:18;;;;;;;;;;;;;;;;;;4918247;28;21586;-64
2022/09/29 02:44:44;;;;;;;;;;;;;;;;;;4904125;28;20427;-64
2022/09/29 02:47:09;;;;;;;;;;;;;;;;;;4915183;28;19922;-64
2022/09/29 02:49:34;;;;;;;;;;;;;;;;;;4918385;28;19934;-64
2022/09/29 02:52:00;;;;;;;;;;;;;;;;;;4917823;28;19999;-64
2022/09/29 02:54:25;;;;;;;;;;;;;;;;;;4906272;29;19926;-63
2022/09/29 02:56:53;;;;;;;;;;;;;;;;;;4886393;28;19923;-62
2022/09/29 02:59:23;;;;;;;;;;;;;;;;;;4905102;29;19922;-62
2022/09/29 03:01:51;;;;;;;;;;;;;;;;;;4914967;28;20460;-63
2022/09/29 03:04:16;;;;;;;;;;;;;;;;;;4887014;28;19922;-64
2022/09/29 03:06:42;;;;;;;;;;;;;;;;;;4917129;28;19938;-64
2022/09/29 03:09:10;;;;;;;;;;;;;;;;;;4906188;28;19923;-64
2022/09/29 03:11:35;;;;;;;;;;;;;;;;;;4886485;28;20402;-63
2022/09/29 03:14:00;;;;;;;;;;;;;;;;;;4899741;28;19988;-63
2022/09/29 03:16:28;;;;;;;;;;;;;;;;;;4900063;29;20018;-63
2022/09/29 03:18:56;;;;;;;;;;;;;;;;;;4916588;28;19922;-64
2022/09/29 03:21:22;;;;;;;;;;;;;;;;;;4913913;28;20361;-62
2022/09/29 03:23:47;;;;;;;;;;;;;;;;;;4905893;28;20592;-64
2022/09/29 03:26:13;;;;;;;;;;;;;;;;;;4913477;28;19923;-63
2022/09/29 03:28:39;;;;;;;;;;;;;;;;;;4917229;28;19923;-63
2022/09/29 03:31:05;;;;;;;;;;;;;;;;;;4914160;28;20035;-63
2022/09/29 03:33:33;;;;;;;;;;;;;;;;;;4913229;28;19954;-63
2022/09/29 03:36:00;;;;;;;;;;;;;;;;;;4897119;28;19929;-62
2022/09/29 03:38:28;;;;;;;;;;;;;;;;;;4902859;28;20522;-62
2022/09/29 03:40:53;;;;;;;;;;;;;;;;;;4914057;28;20006;-62
2022/09/29 03:43:19;;;;;;;;;;;;;;;;;;4901999;28;19970;-62
2022/09/29 03:45:44;;;;;;;;;;;;;;;;;;4913824;28;19922;-62
2022/09/29 03:48:10;;;;;;;;;;;;;;;;;;4915485;28;19983;-62
2022/09/29 03:50:35;;;;;;;;;;;;;;;;;;4914003;28;19927;-63
2022/09/29 03:53:00;;;;;;;;;;;;;;;;;;4912521;28;19933;-62
2022/09/29 03:55:28;;;;;;;;;;;;;;;;;;4876325;29;19957;-63
2022/09/29 03:57:53;;;;;;;;;;;;;;;;;;4905512;29;19919;-61
2022/09/29 04:00:19;;;;;;;;;;;;;;;;;;4889240;29;19938;-60
2022/09/29 04:02:44;;;;;;;;;;;;;;;;;;4888232;29;20358;-63
2022/09/29 04:05:10;;;;;;;;;;;;;;;;;;4890739;29;19919;-62
2022/09/29 04:07:38;;;;;;;;;;;;;;;;;;4904012;29;20057;-62
2022/09/29 04:10:03;;;;;;;;;;;;;;;;;;4902717;29;19975;-61
2022/09/29 04:12:30;;;;;;;;;;;;;;;;;;4904353;29;19923;-62
2022/09/29 04:14:56;;;;;;;;;;;;;;;;;;4888445;29;21148;-62
2022/09/29 04:17:21;;;;;;;;;;;;;;;;;;4886227;29;19969;-62
2022/09/29 04:19:49;;;;;;;;;;;;;;;;;;4885864;29;21294;-62
2022/09/29 04:22:17;;;;;;;;;;;;;;;;;;4896620;29;19945;-62
2022/09/29 04:24:42;;;;;;;;;;;;;;;;;;4886086;29;20266;-61
2022/09/29 04:27:10;;;;;;;;;;;;;;;;;;4885328;29;20936;-61
2022/09/29 04:29:37;;;;;;;;;;;;;;;;;;4886720;29;19923;-62
2022/09/29 04:32:04;;;;;;;;;;;;;;;;;;4902823;29;19930;-62
2022/09/29 04:34:32;;;;;;;;;;;;;;;;;;4889700;29;19919;-62
2022/09/29 04:37:00;;;;;;;;;;;;;;;;;;4878112;29;19919;-62
2022/09/29 04:39:27;;;;;;;;;;;;;;;;;;4903673;29;21054;-61
2022/09/29 04:41:53;;;;;;;;;;;;;;;;;;4894907;29;19951;-61
2022/09/29 04:44:23;;;;;;;;;;;;;;;;;;4876721;29;19918;-61
2022/09/29 04:46:51;;;;;;;;;;;;;;;;;;4902856;29;20459;-61
2022/09/29 04:49:16;;;;;;;;;;;;;;;;;;4887535;29;19923;-61
2022/09/29 04:51:41;;;;;;;;;;;;;;;;;;4893207;29;19919;-61
2022/09/29 04:54:07;;;;;;;;;;;;;;;;;;4901322;29;20634;-61
2022/09/29 04:56:32;;;;;;;;;;;;;;;;;;4909336;28;19962;-61
2022/09/29 04:59:00;;;;;;;;;;;;;;;;;;4906263;28;19919;-61
2022/09/29 05:01:28;;;;;;;;;;;;;;;;;;4898639;29;19938;-62
2022/09/29 05:03:56;;;;;;;;;;;;;;;;;;4895634;29;19931;-62
2022/09/29 05:06:24;;;;;;;;;;;;;;;;;;4905109;29;19919;-62
2022/09/29 05:08:49;;;;;;;;;;;;;;;;;;4914741;28;19923;-61
2022/09/29 05:11:15;;;;;;;;;;;;;;;;;;4894732;29;19939;-61
2022/09/29 05:13:40;;;;;;;;;;;;;;;;;;4896631;29;19923;-61
2022/09/29 05:16:05;;;;;;;;;;;;;;;;;;4889103;29;19929;-61
2022/09/29 05:18:34;;;;;;;;;;;;;;;;;;4901076;29;20010;-61
2022/09/29 05:21:00;;;;;;;;;;;;;;;;;;4905297;29;20604;-62
2022/09/29 05:23:28;;;;;;;;;;;;;;;;;;4913114;28;21758;-62
2022/09/29 05:25:56;;;;;;;;;;;;;;;;;;4899359;29;19958;-61
2022/09/29 05:28:21;;;;;;;;;;;;;;;;;;4903492;29;20042;-61
2022/09/29 05:30:47;;;;;;;;;;;;;;;;;;4916077;28;20024;-60
2022/09/29 05:33:12;;;;;;;;;;;;;;;;;;4917958;28;20508;-61
2022/09/29 05:35:37;;;;;;;;;;;;;;;;;;4903812;29;19919;-60
2022/09/29 05:38:03;;;;;;;;;;;;;;;;;;4902697;29;19961;-61
2022/09/29 05:40:30;;;;;;;;;;;;;;;;;;4891519;29;21018;-62
2022/09/29 05:42:58;;;;;;;;;;;;;;;;;;4905302;29;19927;-61
2022/09/29 05:45:26;;;;;;;;;;;;;;;;;;4900348;29;19923;-61
2022/09/29 05:47:53;;;;;;;;;;;;;;;;;;4915786;28;19982;-60
2022/09/29 05:50:18;;;;;;;;;;;;;;;;;;4917480;28;19938;-61
2022/09/29 05:52:48;;;;;;;;;;;;;;;;;;4889744;29;19935;-62
2022/09/29 05:55:15;;;;;;;;;;;;;;;;;;4873037;29;19923;-61
2022/09/29 05:57:41;;;;;;;;;;;;;;;;;;4902864;29;19965;-60
2022/09/29 06:00:06;;;;;;;;;;;;;;;;;;4881501;29;19931;-61
2022/09/29 06:02:32;;;;;;;;;;;;;;;;;;4900066;29;19929;-62
2022/09/29 06:05:00;;;;;;;;;;;;;;;;;;4902359;29;21631;-61
2022/09/29 06:07:26;;;;;;;;;;;;;;;;;;4899209;29;19975;-61
2022/09/29 06:09:54;;;;;;;;;;;;;;;;;;4885909;29;19966;-62
2022/09/29 06:12:19;;;;;;;;;;;;;;;;;;4891424;29;19923;-62
2022/09/29 06:14:47;;;;;;;;;;;;;;;;;;4891384;29;19926;-60
2022/09/29 06:17:12;;;;;;;;;;;;;;;;;;4899812;29;19923;-61
2022/09/29 06:19:45;;;;;;;;;;;;;;;;;;4898152;29;19923;-61
2022/09/29 06:22:10;;;;;;;;;;;;;;;;;;4876621;29;19994;-61
2022/09/29 06:24:36;;;;;;;;;;;;;;;;;;4900684;29;19923;-61
2022/09/29 06:27:03;;;;;;;;;;;;;;;;;;4885469;29;19923;-60
2022/09/29 06:29:31;;;;;;;;;;;;;;;;;;4887391;29;20764;-60
2022/09/29 06:31:56;;;;;;;;;;;;;;;;;;4896264;29;19923;-61
2022/09/29 06:34:24;;;;;;;;;;;;;;;;;;4897166;29;19966;-61
2022/09/29 06:39:33;;;;;;;;;;;;;;;;;;4897807;29;19930;-60
2022/09/29 06:42:02;;;;;;;;;;;;;;;;;;4896719;29;19929;-60
2022/09/29 06:44:28;;;;;;;;;;;;;;;;;;4883994;29;20283;-61
2022/09/29 06:46:56;;;;;;;;;;;;;;;;;;4891627;29;19927;-61
2022/09/29 06:49:22;;;;;;;;;;;;;;;;;;4901449;29;19926;-62
2022/09/29 06:51:50;;;;;;;;;;;;;;;;;;4886418;29;19922;-61
2022/09/29 06:54:16;;;;;;;;;;;;;;;;;;4901408;29;19958;-60
2022/09/29 06:56:41;;;;;;;;;;;;;;;;;;4921229;28;19926;-60
2022/09/29 06:59:07;;;;;;;;;;;;;;;;;;4923956;28;20786;-60
2022/09/29 07:01:33;;;;;;;;;;;;;;;;;;4903314;29;19970;-60
2022/09/29 07:04:03;;;;;;;;;;;;;;;;;;4894120;28;20006;-60
2022/09/29 07:06:29;;;;;;;;;;;;;;;;;;4903902;29;19938;-59
2022/09/29 07:08:54;;;;;;;;;;;;;;;;;;4921623;28;19923;-61
2022/09/29 07:11:20;;;;;;;;;;;;;;;;;;4920278;28;20021;-59
2022/09/29 07:13:45;;;;;;;;;;;;;;;;;;4922724;28;19973;-60
2022/09/29 07:16:10;;;;;;;;;;;;;;;;;;4923172;28;19918;-60
2022/09/29 07:18:38;;;;;;;;;;;;;;;;;;4920860;28;19919;-60
2022/09/29 07:21:06;;;;;;;;;;;;;;;;;;4922740;28;19934;-60
2022/09/29 07:23:31;;;;;;;;;;;;;;;;;;4920015;28;19927;-61
2022/09/29 07:25:59;;;;;;;;;;;;;;;;;;4917690;28;19929;-60
2022/09/29 07:28:26;;;;;;;;;;;;;;;;;;4921650;28;19923;-60
2022/09/29 07:30:52;;;;;;;;;;;;;;;;;;4903509;28;19922;-60
2022/09/29 07:33:20;;;;;;;;;;;;;;;;;;4922576;28;19925;-60
2022/09/29 07:35:47;;;;;;;;;;;;;;;;;;4904118;28;19918;-60
2022/09/29 07:38:16;;;;;;;;;;;;;;;;;;4911628;28;19929;-61
2022/09/29 07:40:41;;;;;;;;;;;;;;;;;;4918747;28;19975;-59
2022/09/29 07:43:06;;;;;;;;;;;;;;;;;;4912027;28;20017;-60
2022/09/29 07:45:32;;;;;;;;;;;;;;;;;;4920003;28;19918;-61
2022/09/29 07:47:59;;;;;;;;;;;;;;;;;;4921365;28;19919;-60
2022/09/29 07:50:24;;;;;;;;;;;;;;;;;;4909762;28;20022;-60
2022/09/29 07:52:50;;;;;;;;;;;;;;;;;;4892238;29;19958;-61
2022/09/29 07:55:15;;;;;;;;;;;;;;;;;;4918901;28;19922;-61
2022/09/29 07:57:41;;;;;;;;;;;;;;;;;;4907883;28;19919;-62
2022/09/29 08:00:06;;;;;;;;;;;;;;;;;;4898572;28;19918;-61
2022/09/29 08:02:32;;;;;;;;;;;;;;;;;;4919866;28;19922;-63
2022/09/29 08:04:57;;;;;;;;;;;;;;;;;;4900893;28;19930;-63
2022/09/29 08:07:24;;;;;;;;;;;;;;;;;;4920330;28;19922;-62
2022/09/29 08:09:50;;;;;;;;;;;;;;;;;;4902542;28;19926;-62
2022/09/29 08:12:17;;;;;;;;;;;;;;;;;;4920369;28;20302;-62
2022/09/29 08:14:45;;;;;;;;;;;;;;;;;;4908280;29;19918;-63
2022/09/29 08:17:10;;;;;;;;;;;;;;;;;;4898604;28;21697;-63
2022/09/29 08:19:36;;;;;;;;;;;;;;;;;;4918675;28;20338;-62
2022/09/29 08:22:01;;;;;;;;;;;;;;;;;;4918577;28;19926;-63
2022/09/29 08:24:28;;;;;;;;;;;;;;;;;;4899355;28;19918;-62
2022/09/29 08:26:56;;;;;;;;;;;;;;;;;;4889102;28;19931;-61
2022/09/29 08:29:22;;;;;;;;;;;;;;;;;;4918664;28;19918;-62
2022/09/29 08:31:50;;;;;;;;;;;;;;;;;;4914049;28;19923;-62
2022/09/29 08:34:19;;;;;;;;;;;;;;;;;;4891821;29;19923;-63
2022/09/29 08:36:46;;;;;;;;;;;;;;;;;;4900065;28;19986;-63
2022/09/29 08:39:13;;;;;;;;;;;;;;;;;;4905722;28;20010;-63
2022/09/29 08:41:39;;;;;;;;;;;;;;;;;;4909914;28;19934;-63
2022/09/29 08:44:06;;;;;;;;;;;;;;;;;;4921199;28;19922;-66
2022/09/29 08:46:32;;;;;;;;;;;;;;;;;;4914562;29;20430;-63
2022/09/29 08:48:57;;;;;;;;;;;;;;;;;;4905135;28;19918;-63
2022/09/29 08:51:22;;;;;;;;;;;;;;;;;;4894350;29;20738;-62
2022/09/29 08:53:50;;;;;;;;;;;;;;;;;;4904279;29;19923;-63
2022/09/29 08:56:15;;;;;;;;;;;;;;;;;;4903593;28;19947;-63
2022/09/29 08:58:44;;;;;;;;;;;;;;;;;;4912538;29;19923;-63
2022/09/29 09:01:09;;;;;;;;;;;;;;;;;;4906061;29;19942;-63
2022/09/29 09:03:34;;;;;;;;;;;;;;;;;;4893962;28;20629;-62
2022/09/29 09:06:00;;;;;;;;;;;;;;;;;;4904938;29;19927;-63
2022/09/29 09:08:25;;;;;;;;;;;;;;;;;;4910400;28;19918;-62
2022/09/29 09:10:51;;;;;;;;;;;;;;;;;;4905041;29;19930;-63
2022/09/29 09:13:19;;;;;;;;;;;;;;;;;;4918472;28;19970;-63
2022/09/29 09:15:46;;;;;;;;;;;;;;;;;;4919740;28;19954;-63
2022/09/29 09:18:14;;;;;;;;;;;;;;;;;;4913712;29;20017;-63
2022/09/29 09:20:42;;;;;;;;;;;;;;;;;;4922684;28;19922;-63
2022/09/29 09:23:10;;;;;;;;;;;;;;;;;;4903959;29;19929;-62
2022/09/29 09:25:35;;;;;;;;;;;;;;;;;;4906003;29;19934;-63
2022/09/29 09:28:03;;;;;;;;;;;;;;;;;;4919616;28;20402;-64
2022/09/29 09:30:31;;;;;;;;;;;;;;;;;;4921915;28;20121;-64
2022/09/29 09:32:56;;;;;;;;;;;;;;;;;;4909007;29;19931;-63
2022/09/29 09:35:24;;;;;;;;;;;;;;;;;;4919404;28;19922;-60
2022/09/29 09:37:52;;;;;;;;;;;;;;;;;;4911617;29;19918;-59
2022/09/29 09:40:18;;;;;;;;;;;;;;;;;;4892672;28;19997;-60
2022/09/29 09:42:43;;;;;;;;;;;;;;;;;;4920886;28;19933;-63
2022/09/29 09:45:08;;;;;;;;;;;;;;;;;;4909011;29;19923;-64
2022/09/29 09:47:38;;;;;;;;;;;;;;;;;;4911122;28;20819;-62
2022/09/29 09:50:04;;;;;;;;;;;;;;;;;;4912416;29;19923;-62
2022/09/29 09:52:29;;;;;;;;;;;;;;;;;;4921334;29;19945;-64
2022/09/29 09:54:54;;;;;;;;;;;;;;;;;;4906350;28;19929;-65
2022/09/29 09:57:20;;;;;;;;;;;;;;;;;;4921809;28;20041;-63
2022/09/29 09:59:45;;;;;;;;;;;;;;;;;;4906756;28;20262;-60
2022/09/29 10:02:13;;;;;;;;;;;;;;;;;;4921556;28;19958;-61
2022/09/29 10:04:41;;;;;;;;;;;;;;;;;;4919962;28;19918;-64
2022/09/29 10:07:10;;;;;;;;;;;;;;;;;;4904869;29;20202;-64
2022/09/29 10:09:35;;;;;;;;;;;;;;;;;;4923179;28;20037;-63
2022/09/29 10:12:00;;;;;;;;;;;;;;;;;;4894844;29;19919;-63
2022/09/29 10:14:25;;;;;;;;;;;;;;;;;;4907799;28;19992;-61
2022/09/29 10:16:53;;;;;;;;;;;;;;;;;;4919725;28;19918;-61
2022/09/29 10:19:23;;;;;;;;;;;;;;;;;;4908113;29;22088;-61
2022/09/29 10:21:51;;;;;;;;;;;;;;;;;;4893087;29;20010;-60
2022/09/29 10:24:18;;;;;;;;;;;;;;;;;;4893984;28;19922;-61
2022/09/29 10:26:47;;;;;;;;;;;;;;;;;;4902342;29;19922;-60
2022/09/29 10:29:12;;;;;;;;;;;;;;;;;;4902843;29;20911;-63
2022/09/29 10:31:37;;;;;;;;;;;;;;;;;;4893792;28;19923;-64
2022/09/29 10:34:02;;;;;;;;;;;;;;;;;;4891161;28;19933;-60
2022/09/29 10:36:28;;;;;;;;;;;;;;;;;;4892691;29;20740;-62
2022/09/29 10:38:53;;;;;;;;;;;;;;;;;;4912164;28;19922;-63
2022/09/29 10:41:19;;;;;;;;;;;;;;;;;;4920490;28;19962;-63
2022/09/29 10:43:44;;;;;;;;;;;;;;;;;;4906045;28;20006;-62
2022/09/29 10:46:10;;;;;;;;;;;;;;;;;;4888230;28;20009;-63
2022/09/29 10:48:37;;;;;;;;;;;;;;;;;;4920012;28;20351;-60
2022/09/29 10:51:03;;;;;;;;;;;;;;;;;;4912923;28;19984;-62
2022/09/29 10:53:31;;;;;;;;;;;;;;;;;;4918784;28;20616;-60
2022/09/29 10:55:57;;;;;;;;;;;;;;;;;;4899750;29;20019;-63
2022/09/29 10:58:22;;;;;;;;;;;;;;;;;;4899481;28;20313;-63
2022/09/29 11:00:47;;;;;;;;;;;;;;;;;;4909573;29;19930;-63
2022/09/29 11:03:13;;;;;;;;;;;;;;;;;;4916224;28;19923;-60
2022/09/29 11:05:38;;;;;;;;;;;;;;;;;;4915704;28;20350;-61
2022/09/29 11:08:03;;;;;;;;;;;;;;;;;;4920578;28;19941;-62
2022/09/29 11:10:29;;;;;;;;;;;;;;;;;;4915816;28;19925;-62
2022/09/29 11:12:59;;;;;;;;;;;;;;;;;;4920324;28;19985;-62
2022/09/29 11:15:25;;;;;;;;;;;;;;;;;;4920140;28;19923;-62
2022/09/29 11:17:51;;;;;;;;;;;;;;;;;;4913491;28;20330;-64
2022/09/29 11:20:18;;;;;;;;;;;;;;;;;;4913240;28;20436;-63
2022/09/29 11:22:48;;;;;;;;;;;;;;;;;;4916374;28;19918;-62
2022/09/29 11:25:13;;;;;;;;;;;;;;;;;;4915221;28;19974;-63
2022/09/29 11:27:39;;;;;;;;;;;;;;;;;;4903648;28;19997;-63
2022/09/29 11:30:06;;;;;;;;;;;;;;;;;;4918640;28;19993;-62
2022/09/29 11:32:35;;;;;;;;;;;;;;;;;;4912174;28;20953;-63
2022/09/29 11:35:04;;;;;;;;;;;;;;;;;;4901163;29;20286;-63
2022/09/29 11:37:32;;;;;;;;;;;;;;;;;;4915817;28;19922;-63
2022/09/29 11:40:00;;;;;;;;;;;;;;;;;;4914521;28;19930;-63
2022/09/29 11:42:25;;;;;;;;;;;;;;;;;;4888101;28;19965;-63
2022/09/29 11:44:50;;;;;;;;;;;;;;;;;;4900413;29;20291;-63
2022/09/29 11:47:15;;;;;;;;;;;;;;;;;;4894848;28;19923;-64
2022/09/29 11:49:41;;;;;;;;;;;;;;;;;;4898424;28;21841;-63
2022/09/29 11:52:07;;;;;;;;;;;;;;;;;;4906226;28;20130;-64
2022/09/29 11:54:35;;;;;;;;;;;;;;;;;;4916586;28;20017;-64
2022/09/29 11:57:00;;;;;;;;;;;;;;;;;;4895909;28;19929;-64
2022/09/29 11:59:28;;;;;;;;;;;;;;;;;;4899661;28;20711;-64
2022/09/29 12:01:53;;;;;;;;;;;;;;;;;;4886075;28;20057;-63
2022/09/29 12:04:21;;;;;;;;;;;;;;;;;;4913975;28;19919;-64
2022/09/29 12:09:33;;;;;;;;;;;;;;;;;;4915900;28;20005;-63
2022/09/29 12:11:59;;;;;;;;;;;;;;;;;;4914264;28;21297;-64
2022/09/29 12:14:27;;;;;;;;;;;;;;;;;;4899032;29;19923;-63
2022/09/29 12:16:52;;;;;;;;;;;;;;;;;;4893791;28;19923;-65
2022/09/29 12:19:17;;;;;;;;;;;;;;;;;;4910809;28;19927;-64
2022/09/29 12:21:44;;;;;;;;;;;;;;;;;;4920204;28;21567;-64
2022/09/29 12:24:09;;;;;;;;;;;;;;;;;;4901687;28;19974;-64
2022/09/29 12:26:34;;;;;;;;;;;;;;;;;;4914144;28;19918;-65
2022/09/29 12:28:59;;;;;;;;;;;;;;;;;;4890523;29;19966;-65
2022/09/29 12:31:45;;;;;;;;;;;;;;;;;;4921946;28;19970;-64
2022/09/29 12:34:13;;;;;;;;;;;;;;;;;;4907678;29;21018;-63
2022/09/29 12:36:45;;;;;;;;;;;;;;;;;;4908350;29;19922;-63
2022/09/29 12:39:13;;;;;;;;;;;;;;;;;;4919724;28;19950;-64
2022/09/29 12:41:47;;;;;;;;;;;;;;;;;;4921772;28;19923;-64
2022/09/29 12:44:13;;;;;;;;;;;;;;;;;;4905787;28;20029;-64
2022/09/29 12:46:42;;;;;;;;;;;;;;;;;;4918593;28;19923;-64
2022/09/29 12:49:07;;;;;;;;;;;;;;;;;;4910882;29;19969;-64
2022/09/29 12:51:33;;;;;;;;;;;;;;;;;;4894461;28;19922;-63
2022/09/29 12:53:58;;;;;;;;;;;;;;;;;;4901161;29;19934;-63
2022/09/29 12:56:30;;;;;;;;;;;;;;;;;;4919540;28;20383;-63
2022/09/29 12:58:55;;;;;;;;;;;;;;;;;;4921986;28;19989;-63
2022/09/29 13:01:23;;;;;;;;;;;;;;;;;;4902207;29;20477;-63
2022/09/29 13:03:50;;;;;;;;;;;;;;;;;;4922508;28;20902;-63
2022/09/29 13:06:16;;;;;;;;;;;;;;;;;;4918483;28;19941;-64
2022/09/29 13:11:58;;;;;;;;;;;;;;;;;;4920705;28;19930;-64
2022/09/29 13:14:23;;;;;;;;;;;;;;;;;;4904404;28;19922;-63
2022/09/29 13:16:51;;;;;;;;;;;;;;;;;;4899919;29;19974;-63
2022/09/29 13:19:26;;;;;;;;;;;;;;;;;;4895433;28;19929;-63
2022/09/29 13:21:51;;;;;;;;;;;;;;;;;;4916409;28;19927;-64
2022/09/29 13:24:17;;;;;;;;;;;;;;;;;;4918099;28;19972;-64
2022/09/29 13:26:43;;;;;;;;;;;;;;;;;;4899029;29;19922;-64
2022/09/29 13:29:09;;;;;;;;;;;;;;;;;;4917528;28;20018;-64
2022/09/29 13:31:34;;;;;;;;;;;;;;;;;;4890663;28;19922;-64
2022/09/29 13:34:04;;;;;;;;;;;;;;;;;;4918897;28;19922;-64
2022/09/29 13:36:35;;;;;;;;;;;;;;;;;;4906693;29;21913;-63
2022/09/29 13:39:00;;;;;;;;;;;;;;;;;;4922188;28;19926;-63
2022/09/29 13:41:26;;;;;;;;;;;;;;;;;;4920022;28;19922;-63
2022/09/29 13:43:51;;;;;;;;;;;;;;;;;;4917762;28;20316;-64
2022/09/29 13:46:29;;;;;;;;;;;;;;;;;;4905137;29;20398;-64
2022/09/29 13:48:54;;;;;;;;;;;;;;;;;;4896504;28;19962;-65
2022/09/29 13:51:20;;;;;;;;;;;;;;;;;;4893428;29;20014;-65
2022/09/29 13:53:45;;;;;;;;;;;;;;;;;;4900997;29;19970;-64
2022/09/29 13:56:12;;;;;;;;;;;;;;;;;;4919084;28;19973;-63
2022/09/29 13:58:40;;;;;;;;;;;;;;;;;;4896626;29;19923;-64
2022/09/29 14:01:05;;;;;;;;;;;;;;;;;;4919500;28;19950;-63
2022/09/29 14:03:31;;;;;;;;;;;;;;;;;;4899386;29;19984;-64
2022/09/29 14:05:56;;;;;;;;;;;;;;;;;;4917873;28;19942;-63
2022/09/29 14:08:26;;;;;;;;;;;;;;;;;;4916023;28;19931;-64
2022/09/29 14:10:52;;;;;;;;;;;;;;;;;;4916961;28;20036;-63
2022/09/29 14:13:21;;;;;;;;;;;;;;;;;;4906545;28;20018;-63
2022/09/29 14:15:46;;;;;;;;;;;;;;;;;;4914717;28;20002;-63
2022/09/29 14:18:12;;;;;;;;;;;;;;;;;;4917916;28;19930;-62
2022/09/29 14:20:37;;;;;;;;;;;;;;;;;;4892643;28;20538;-62
2022/09/29 14:23:05;;;;;;;;;;;;;;;;;;4893102;29;19919;-60
2022/09/29 14:25:35;;;;;;;;;;;;;;;;;;4904591;29;20699;-60
2022/09/29 14:28:02;;;;;;;;;;;;;;;;;;4920362;28;19925;-59
2022/09/29 14:30:27;;;;;;;;;;;;;;;;;;4920472;28;20357;-59
2022/09/29 14:32:53;;;;;;;;;;;;;;;;;;4918079;28;19922;-59
2022/09/29 14:35:18;;;;;;;;;;;;;;;;;;4906524;29;21977;-59
2022/09/29 14:37:46;;;;;;;;;;;;;;;;;;4897053;29;19926;-60
2022/09/29 14:40:27;;;;;;;;;;;;;;;;;;4907317;28;19922;-60
2022/09/29 14:42:55;;;;;;;;;;;;;;;;;;4888268;29;21772;-59
2022/09/29 14:53:34;;;;;;;;;;;;;;;;;;4920861;28;19930;-59
2022/09/29 14:56:00;;;;;;;;;;;;;;;;;;4916399;28;20875;-60
2022/09/29 14:58:27;;;;;;;;;;;;;;;;;;4921055;28;19946;-59
2022/09/29 15:00:53;;;;;;;;;;;;;;;;;;4917933;28;19927;-60
2022/09/29 15:03:18;;;;;;;;;;;;;;;;;;4902722;28;19923;-60
2022/09/29 15:05:46;;;;;;;;;;;;;;;;;;4903062;29;19915;-60
2022/09/29 15:08:13;;;;;;;;;;;;;;;;;;4921489;28;19977;-59
2022/09/29 15:10:39;;;;;;;;;;;;;;;;;;4893764;29;19926;-58
2022/09/29 15:13:05;;;;;;;;;;;;;;;;;;4904439;28;19965;-59
2022/09/29 15:15:32;;;;;;;;;;;;;;;;;;4900791;29;19974;-60
2022/09/29 15:18:00;;;;;;;;;;;;;;;;;;4901651;28;19969;-60
2022/09/29 15:20:25;;;;;;;;;;;;;;;;;;4897957;29;19927;-60
2022/09/29 15:22:56;;;;;;;;;;;;;;;;;;4897394;29;19930;-61
2022/09/29 15:25:33;;;;;;;;;;;;;;;;;;4910730;28;19923;-60
2022/09/29 15:30:43;;;;;;;;;;;;;;;;;;4917700;28;19970;-60
2022/09/29 15:33:09;;;;;;;;;;;;;;;;;;4913392;28;19923;-60
2022/09/29 15:35:34;;;;;;;;;;;;;;;;;;4896673;28;20025;-60
2022/09/29 15:38:00;;;;;;;;;;;;;;;;;;4916147;28;19933;-59
2022/09/29 15:40:26;;;;;;;;;;;;;;;;;;4915424;28;20652;-61
2022/09/29 15:42:54;;;;;;;;;;;;;;;;;;4914988;28;19922;-61
2022/09/29 15:45:20;;;;;;;;;;;;;;;;;;4907930;28;19973;-60
2022/09/29 15:47:48;;;;;;;;;;;;;;;;;;4903999;29;19923;-60
2022/09/29 15:50:14;;;;;;;;;;;;;;;;;;4902637;28;20348;-61
2022/09/29 15:52:41;;;;;;;;;;;;;;;;;;4900977;28;19929;-60
2022/09/29 15:55:09;;;;;;;;;;;;;;;;;;4913835;28;19931;-60
2022/09/29 15:57:56;;;;;;;;;;;;;;;;;;4915444;28;19923;-61
2022/09/29 16:00:27;;;;;;;;;;;;;;;;;;4904561;28;19918;-60
2022/09/29 16:02:56;;;;;;;;;;;;;;;;;;4903853;28;20009;-60
2022/09/29 16:05:21;;;;;;;;;;;;;;;;;;4902821;28;20002;-60
2022/09/29 16:07:47;;;;;;;;;;;;;;;;;;4901507;28;19923;-60
2022/09/29 16:10:13;;;;;;;;;;;;;;;;;;4917923;28;19919;-61
2022/09/29 16:12:38;;;;;;;;;;;;;;;;;;4901018;29;19926;-61
2022/09/29 16:15:03;;;;;;;;;;;;;;;;;;4908194;29;19926;-61
2022/09/29 16:17:29;;;;;;;;;;;;;;;;;;4915215;28;19923;-60
2022/09/29 16:19:54;;;;;;;;;;;;;;;;;;4918569;28;20040;-61
2022/09/29 16:22:21;;;;;;;;;;;;;;;;;;4918544;28;20013;-61
2022/09/29 16:24:47;;;;;;;;;;;;;;;;;;4914294;28;20350;-61
2022/09/29 16:27:12;;;;;;;;;;;;;;;;;;4915488;28;20018;-61
2022/09/29 16:29:37;;;;;;;;;;;;;;;;;;4916069;28;19966;-61
2022/09/29 16:32:03;;;;;;;;;;;;;;;;;;4915992;28;20845;-61
2022/09/29 16:34:29;;;;;;;;;;;;;;;;;;4917644;28;20497;-61
2022/09/29 16:36:54;;;;;;;;;;;;;;;;;;4906495;28;19934;-60
2022/09/29 16:39:20;;;;;;;;;;;;;;;;;;4917611;28;20435;-61
2022/09/29 16:41:47;;;;;;;;;;;;;;;;;;4896209;28;19940;-61
2022/09/29 16:44:15;;;;;;;;;;;;;;;;;;4917234;28;19919;-61
2022/09/29 16:50:01;;;;;;;;;;;;;;;;;;4914039;28;19929;-62
2022/09/29 16:52:27;;;;;;;;;;;;;;;;;;4915441;28;19961;-61
2022/09/29 16:54:55;;;;;;;;;;;;;;;;;;4881229;28;20009;-61
2022/09/29 16:57:27;;;;;;;;;;;;;;;;;;4899169;29;19962;-62
2022/09/29 16:59:55;;;;;;;;;;;;;;;;;;4904324;29;20314;-61
2022/09/29 17:02:21;;;;;;;;;;;;;;;;;;4917774;28;20029;-61
2022/09/29 17:04:51;;;;;;;;;;;;;;;;;;4917266;28;19922;-59